sensor_id;sensor_type;location;lat;lon;timestamp;temperature;humidity
40828;DHT22;26549;50.918;5.338;2024-01-30T00:01:54;10.90;99.90
40828;DHT22;26549;50.918;5.338;2024-01-30T00:04:21;10.90;99.90
40828;DHT22;26549;50.918;5.338;2024-01-30T00:06:48;10.90;99.90
40828;DHT22;26549;50.918;5.338;2024-01-30T00:09:14;11.00;99.90
40828;DHT22;26549;50.918;5.338;2024-01-30T00:11:40;10.80;99.90
40828;DHT22;26549;50.918;5.338;2024-01-30T00:14:09;10.90;99.90
40828;DHT22;26549;50.918;5.338;2024-01-30T00:16:34;10.80;99.90
40828;DHT22;26549;50.918;5.338;2024-01-30T00:19:01;10.80;99.90
40828;DHT22;26549;50.918;5.338;2024-01-30T00:21:29;10.80;99.90
40828;DHT22;26549;50.918;5.338;2024-01-30T00:23:56;10.90;99.90
40828;DHT22;26549;50.918;5.338;2024-01-30T00:26:21;10.90;99.90
40828;DHT22;26549;50.918;5.338;2024-01-30T00:28:48;11.00;99.90
40828;DHT22;26549;50.918;5.338;2024-01-30T00:31:14;11.00;99.90
40828;DHT22;26549;50.918;5.338;2024-01-30T00:33:40;10.90;99.90
40828;DHT22;26549;50.918;5.338;2024-01-30T00:36:08;10.90;99.90
40828;DHT22;26549;50.918;5.338;2024-01-30T00:38:34;10.90;99.90
40828;DHT22;26549;50.918;5.338;2024-01-30T00:41:00;11.00;99.90
40828;DHT22;26549;50.918;5.338;2024-01-30T00:43:28;10.90;99.90
40828;DHT22;26549;50.918;5.338;2024-01-30T00:45:56;10.90;99.90
40828;DHT22;26549;50.918;5.338;2024-01-30T00:48:22;10.90;99.90
40828;DHT22;26549;50.918;5.338;2024-01-30T00:50:51;10.90;99.90
40828;DHT22;26549;50.918;5.338;2024-01-30T00:53:18;10.90;99.90
40828;DHT22;26549;50.918;5.338;2024-01-30T00:55:46;10.90;99.90
40828;DHT22;26549;50.918;5.338;2024-01-30T00:58:12;11.00;99.90
40828;DHT22;26549;50.918;5.338;2024-01-30T01:00:39;10.90;99.90
40828;DHT22;26549;50.918;5.338;2024-01-30T01:03:05;11.00;99.90
40828;DHT22;26549;50.918;5.338;2024-01-30T01:05:31;11.00;99.90
40828;DHT22;26549;50.918;5.338;2024-01-30T01:07:57;10.80;99.90
40828;DHT22;26549;50.918;5.338;2024-01-30T01:10:23;10.90;99.90
40828;DHT22;26549;50.918;5.338;2024-01-30T01:12:48;10.90;99.90
40828;DHT22;26549;50.918;5.338;2024-01-30T01:15:15;10.80;99.90
40828;DHT22;26549;50.918;5.338;2024-01-30T01:17:43;10.90;99.90
40828;DHT22;26549;50.918;5.338;2024-01-30T01:20:09;10.80;99.90
40828;DHT22;26549;50.918;5.338;2024-01-30T01:22:39;10.80;99.90
40828;DHT22;26549;50.918;5.338;2024-01-30T01:25:06;10.80;99.90
40828;DHT22;26549;50.918;5.338;2024-01-30T01:27:33;10.80;99.90
40828;DHT22;26549;50.918;5.338;2024-01-30T01:30:01;10.80;99.90
40828;DHT22;26549;50.918;5.338;2024-01-30T01:32:26;10.90;99.90
40828;DHT22;26549;50.918;5.338;2024-01-30T01:34:52;10.80;99.90
40828;DHT22;26549;50.918;5.338;2024-01-30T01:37:19;10.70;99.90
40828;DHT22;26549;50.918;5.338;2024-01-30T01:39:47;10.70;99.90
40828;DHT22;26549;50.918;5.338;2024-01-30T01:42:13;10.70;99.90
40828;DHT22;26549;50.918;5.338;2024-01-30T01:44:39;10.70;99.90
40828;DHT22;26549;50.918;5.338;2024-01-30T01:47:06;10.70;99.90
40828;DHT22;26549;50.918;5.338;2024-01-30T01:49:32;10.70;99.90
40828;DHT22;26549;50.918;5.338;2024-01-30T01:51:59;10.80;99.90
40828;DHT22;26549;50.918;5.338;2024-01-30T01:54:27;10.80;99.90
40828;DHT22;26549;50.918;5.338;2024-01-30T01:56:53;10.80;99.90
40828;DHT22;26549;50.918;5.338;2024-01-30T01:59:20;10.80;99.90
40828;DHT22;26549;50.918;5.338;2024-01-30T02:01:47;10.70;99.90
40828;DHT22;26549;50.918;5.338;2024-01-30T02:04:16;10.70;99.90
40828;DHT22;26549;50.918;5.338;2024-01-30T02:06:43;10.80;99.90
40828;DHT22;26549;50.918;5.338;2024-01-30T02:09:10;10.80;99.90
40828;DHT22;26549;50.918;5.338;2024-01-30T02:11:36;10.90;99.90
40828;DHT22;26549;50.918;5.338;2024-01-30T02:14:04;11.00;99.90
40828;DHT22;26549;50.918;5.338;2024-01-30T02:16:31;11.00;99.90
40828;DHT22;26549;50.918;5.338;2024-01-30T02:18:58;11.10;99.90
40828;DHT22;26549;50.918;5.338;2024-01-30T02:21:26;11.10;99.90
40828;DHT22;26549;50.918;5.338;2024-01-30T02:23:54;11.10;99.90
40828;DHT22;26549;50.918;5.338;2024-01-30T02:26:20;11.10;99.90
40828;DHT22;26549;50.918;5.338;2024-01-30T02:28:47;11.00;99.90
40828;DHT22;26549;50.918;5.338;2024-01-30T02:31:14;11.00;99.90
40828;DHT22;26549;50.918;5.338;2024-01-30T02:33:42;11.10;99.90
40828;DHT22;26549;50.918;5.338;2024-01-30T02:36:08;11.00;99.90
40828;DHT22;26549;50.918;5.338;2024-01-30T02:38:34;11.00;99.90
40828;DHT22;26549;50.918;5.338;2024-01-30T02:41:02;11.10;99.90
40828;DHT22;26549;50.918;5.338;2024-01-30T02:43:30;11.10;99.90
40828;DHT22;26549;50.918;5.338;2024-01-30T02:45:55;11.10;99.90
40828;DHT22;26549;50.918;5.338;2024-01-30T02:48:24;11.20;99.90
40828;DHT22;26549;50.918;5.338;2024-01-30T02:50:51;11.20;99.90
40828;DHT22;26549;50.918;5.338;2024-01-30T02:53:19;11.20;99.90
40828;DHT22;26549;50.918;5.338;2024-01-30T02:55:44;11.20;99.90
40828;DHT22;26549;50.918;5.338;2024-01-30T02:58:11;11.30;99.90
40828;DHT22;26549;50.918;5.338;2024-01-30T03:00:38;11.40;99.90
40828;DHT22;26549;50.918;5.338;2024-01-30T03:03:04;11.40;99.90
40828;DHT22;26549;50.918;5.338;2024-01-30T03:05:29;11.30;99.90
40828;DHT22;26549;50.918;5.338;2024-01-30T03:07:57;11.40;99.90
40828;DHT22;26549;50.918;5.338;2024-01-30T03:10:24;11.50;99.90
40828;DHT22;26549;50.918;5.338;2024-01-30T03:12:50;11.40;99.90
40828;DHT22;26549;50.918;5.338;2024-01-30T03:15:15;11.30;99.90
40828;DHT22;26549;50.918;5.338;2024-01-30T03:17:41;11.30;99.90
40828;DHT22;26549;50.918;5.338;2024-01-30T03:20:07;11.30;99.90
40828;DHT22;26549;50.918;5.338;2024-01-30T03:22:34;11.30;99.90
40828;DHT22;26549;50.918;5.338;2024-01-30T03:25:00;11.30;99.90
40828;DHT22;26549;50.918;5.338;2024-01-30T03:27:28;11.30;99.90
40828;DHT22;26549;50.918;5.338;2024-01-30T03:29:54;11.30;99.90
40828;DHT22;26549;50.918;5.338;2024-01-30T03:32:21;11.30;99.90
40828;DHT22;26549;50.918;5.338;2024-01-30T03:34:49;11.20;99.90
40828;DHT22;26549;50.918;5.338;2024-01-30T03:37:14;11.30;99.90
40828;DHT22;26549;50.918;5.338;2024-01-30T03:39:41;11.20;99.90
40828;DHT22;26549;50.918;5.338;2024-01-30T03:42:10;11.40;99.90
40828;DHT22;26549;50.918;5.338;2024-01-30T03:44:36;11.30;99.90
40828;DHT22;26549;50.918;5.338;2024-01-30T03:47:02;11.40;99.90
40828;DHT22;26549;50.918;5.338;2024-01-30T03:49:29;11.30;99.90
40828;DHT22;26549;50.918;5.338;2024-01-30T03:51:55;11.20;99.90
40828;DHT22;26549;50.918;5.338;2024-01-30T03:54:21;11.30;99.90
40828;DHT22;26549;50.918;5.338;2024-01-30T03:56:48;11.30;99.90
40828;DHT22;26549;50.918;5.338;2024-01-30T03:59:15;11.20;99.90
40828;DHT22;26549;50.918;5.338;2024-01-30T04:01:42;11.20;99.90
40828;DHT22;26549;50.918;5.338;2024-01-30T04:04:09;11.20;99.90
40828;DHT22;26549;50.918;5.338;2024-01-30T04:06:38;11.30;99.90
40828;DHT22;26549;50.918;5.338;2024-01-30T04:09:04;11.30;99.90
40828;DHT22;26549;50.918;5.338;2024-01-30T04:11:30;11.30;99.90
40828;DHT22;26549;50.918;5.338;2024-01-30T04:13:57;11.30;99.90
40828;DHT22;26549;50.918;5.338;2024-01-30T04:16:25;11.30;99.90
40828;DHT22;26549;50.918;5.338;2024-01-30T04:18:52;11.40;99.90
40828;DHT22;26549;50.918;5.338;2024-01-30T04:21:21;11.40;99.90
40828;DHT22;26549;50.918;5.338;2024-01-30T04:23:46;11.30;99.90
40828;DHT22;26549;50.918;5.338;2024-01-30T04:26:14;11.40;99.90
40828;DHT22;26549;50.918;5.338;2024-01-30T04:28:41;11.30;99.90
40828;DHT22;26549;50.918;5.338;2024-01-30T04:31:08;11.30;99.90
40828;DHT22;26549;50.918;5.338;2024-01-30T04:33:34;11.30;99.90
40828;DHT22;26549;50.918;5.338;2024-01-30T04:36:00;11.30;99.90
40828;DHT22;26549;50.918;5.338;2024-01-30T04:38:26;11.30;99.90
40828;DHT22;26549;50.918;5.338;2024-01-30T04:40:52;11.20;99.90
40828;DHT22;26549;50.918;5.338;2024-01-30T04:43:18;11.20;99.90
40828;DHT22;26549;50.918;5.338;2024-01-30T04:45:44;11.30;99.90
40828;DHT22;26549;50.918;5.338;2024-01-30T04:48:10;11.10;99.90
40828;DHT22;26549;50.918;5.338;2024-01-30T04:50:37;11.10;99.90
40828;DHT22;26549;50.918;5.338;2024-01-30T04:53:03;11.10;99.90
40828;DHT22;26549;50.918;5.338;2024-01-30T04:55:30;11.10;99.90
40828;DHT22;26549;50.918;5.338;2024-01-30T04:57:57;11.20;99.90
40828;DHT22;26549;50.918;5.338;2024-01-30T05:00:23;11.20;99.90
40828;DHT22;26549;50.918;5.338;2024-01-30T05:02:48;11.20;99.90
40828;DHT22;26549;50.918;5.338;2024-01-30T05:05:14;11.20;99.90
40828;DHT22;26549;50.918;5.338;2024-01-30T05:07:41;11.10;99.90
40828;DHT22;26549;50.918;5.338;2024-01-30T05:10:07;11.20;99.90
40828;DHT22;26549;50.918;5.338;2024-01-30T05:12:38;11.20;99.90
40828;DHT22;26549;50.918;5.338;2024-01-30T05:15:06;11.30;99.90
40828;DHT22;26549;50.918;5.338;2024-01-30T05:17:33;11.30;99.90
40828;DHT22;26549;50.918;5.338;2024-01-30T05:19:58;11.20;99.90
40828;DHT22;26549;50.918;5.338;2024-01-30T05:22:25;11.30;99.90
40828;DHT22;26549;50.918;5.338;2024-01-30T05:24:51;11.10;99.90
40828;DHT22;26549;50.918;5.338;2024-01-30T05:27:18;11.10;99.90
40828;DHT22;26549;50.918;5.338;2024-01-30T05:29:43;11.20;99.90
40828;DHT22;26549;50.918;5.338;2024-01-30T05:32:10;11.20;99.90
40828;DHT22;26549;50.918;5.338;2024-01-30T05:34:36;11.20;99.90
40828;DHT22;26549;50.918;5.338;2024-01-30T05:37:02;11.20;99.90
40828;DHT22;26549;50.918;5.338;2024-01-30T05:39:30;11.20;99.90
40828;DHT22;26549;50.918;5.338;2024-01-30T05:42:00;11.20;99.90
40828;DHT22;26549;50.918;5.338;2024-01-30T05:44:27;11.20;99.90
40828;DHT22;26549;50.918;5.338;2024-01-30T05:46:52;11.10;99.90
40828;DHT22;26549;50.918;5.338;2024-01-30T05:49:18;11.20;99.90
40828;DHT22;26549;50.918;5.338;2024-01-30T05:51:44;11.30;99.90
40828;DHT22;26549;50.918;5.338;2024-01-30T05:54:10;11.30;99.90
40828;DHT22;26549;50.918;5.338;2024-01-30T05:56:37;11.30;99.90
40828;DHT22;26549;50.918;5.338;2024-01-30T05:59:03;11.30;99.90
40828;DHT22;26549;50.918;5.338;2024-01-30T06:01:29;11.40;99.90
40828;DHT22;26549;50.918;5.338;2024-01-30T06:03:55;11.30;99.90
40828;DHT22;26549;50.918;5.338;2024-01-30T06:06:21;11.30;99.90
40828;DHT22;26549;50.918;5.338;2024-01-30T06:08:47;11.30;99.90
40828;DHT22;26549;50.918;5.338;2024-01-30T06:11:13;11.50;99.90
40828;DHT22;26549;50.918;5.338;2024-01-30T06:13:40;11.40;99.90
40828;DHT22;26549;50.918;5.338;2024-01-30T06:16:09;11.40;99.90
40828;DHT22;26549;50.918;5.338;2024-01-30T06:18:36;11.40;99.90
40828;DHT22;26549;50.918;5.338;2024-01-30T06:21:04;11.50;99.90
40828;DHT22;26549;50.918;5.338;2024-01-30T06:23:30;11.50;99.90
40828;DHT22;26549;50.918;5.338;2024-01-30T06:25:56;11.50;99.90
40828;DHT22;26549;50.918;5.338;2024-01-30T06:28:21;11.60;99.90
40828;DHT22;26549;50.918;5.338;2024-01-30T06:30:48;11.60;99.90
40828;DHT22;26549;50.918;5.338;2024-01-30T06:33:14;11.50;99.90
40828;DHT22;26549;50.918;5.338;2024-01-30T06:35:40;11.60;99.90
40828;DHT22;26549;50.918;5.338;2024-01-30T06:38:07;11.60;99.90
40828;DHT22;26549;50.918;5.338;2024-01-30T06:40:33;11.40;99.90
40828;DHT22;26549;50.918;5.338;2024-01-30T06:42:59;11.50;99.90
40828;DHT22;26549;50.918;5.338;2024-01-30T06:45:28;11.30;99.90
40828;DHT22;26549;50.918;5.338;2024-01-30T06:47:54;11.40;99.90
40828;DHT22;26549;50.918;5.338;2024-01-30T06:50:21;11.40;99.90
40828;DHT22;26549;50.918;5.338;2024-01-30T06:52:46;11.40;99.90
40828;DHT22;26549;50.918;5.338;2024-01-30T06:55:12;11.40;99.90
40828;DHT22;26549;50.918;5.338;2024-01-30T06:57:38;11.40;99.90
40828;DHT22;26549;50.918;5.338;2024-01-30T07:00:04;11.40;99.90
40828;DHT22;26549;50.918;5.338;2024-01-30T07:02:30;11.40;99.90
40828;DHT22;26549;50.918;5.338;2024-01-30T07:04:57;11.40;99.90
40828;DHT22;26549;50.918;5.338;2024-01-30T07:07:22;11.50;99.90
40828;DHT22;26549;50.918;5.338;2024-01-30T07:09:49;11.50;99.90
40828;DHT22;26549;50.918;5.338;2024-01-30T07:12:18;11.50;99.90
40828;DHT22;26549;50.918;5.338;2024-01-30T07:14:43;11.40;99.90
40828;DHT22;26549;50.918;5.338;2024-01-30T07:17:09;11.40;99.90
40828;DHT22;26549;50.918;5.338;2024-01-30T07:19:35;11.50;99.90
40828;DHT22;26549;50.918;5.338;2024-01-30T07:22:01;11.50;99.90
40828;DHT22;26549;50.918;5.338;2024-01-30T07:24:26;11.50;99.90
40828;DHT22;26549;50.918;5.338;2024-01-30T07:26:52;11.60;99.90
40828;DHT22;26549;50.918;5.338;2024-01-30T07:29:18;11.70;99.90
40828;DHT22;26549;50.918;5.338;2024-01-30T07:31:44;11.60;99.90
40828;DHT22;26549;50.918;5.338;2024-01-30T07:34:10;11.50;99.90
40828;DHT22;26549;50.918;5.338;2024-01-30T07:36:36;11.70;99.90
40828;DHT22;26549;50.918;5.338;2024-01-30T07:39:01;11.70;99.90
40828;DHT22;26549;50.918;5.338;2024-01-30T07:41:30;11.60;99.90
40828;DHT22;26549;50.918;5.338;2024-01-30T07:43:59;11.70;99.90
40828;DHT22;26549;50.918;5.338;2024-01-30T07:46:24;11.70;99.90
40828;DHT22;26549;50.918;5.338;2024-01-30T07:48:53;11.70;99.90
40828;DHT22;26549;50.918;5.338;2024-01-30T07:51:19;11.80;99.90
40828;DHT22;26549;50.918;5.338;2024-01-30T07:53:45;11.80;99.90
40828;DHT22;26549;50.918;5.338;2024-01-30T07:56:11;11.80;99.90
40828;DHT22;26549;50.918;5.338;2024-01-30T07:58:37;11.80;99.90
40828;DHT22;26549;50.918;5.338;2024-01-30T08:01:06;11.80;99.90
40828;DHT22;26549;50.918;5.338;2024-01-30T08:03:32;11.90;99.90
40828;DHT22;26549;50.918;5.338;2024-01-30T08:05:58;11.90;99.90
40828;DHT22;26549;50.918;5.338;2024-01-30T08:08:24;11.90;99.90
40828;DHT22;26549;50.918;5.338;2024-01-30T08:10:51;11.90;99.90
40828;DHT22;26549;50.918;5.338;2024-01-30T08:13:17;11.90;99.90
40828;DHT22;26549;50.918;5.338;2024-01-30T08:15:46;12.00;99.90
40828;DHT22;26549;50.918;5.338;2024-01-30T08:18:12;12.00;99.90
40828;DHT22;26549;50.918;5.338;2024-01-30T08:20:38;12.00;99.90
40828;DHT22;26549;50.918;5.338;2024-01-30T08:23:04;12.10;99.90
40828;DHT22;26549;50.918;5.338;2024-01-30T08:25:29;12.00;99.90
40828;DHT22;26549;50.918;5.338;2024-01-30T08:27:55;12.10;99.90
40828;DHT22;26549;50.918;5.338;2024-01-30T08:30:22;12.20;99.90
40828;DHT22;26549;50.918;5.338;2024-01-30T08:32:48;12.30;99.90
40828;DHT22;26549;50.918;5.338;2024-01-30T08:35:13;12.30;99.90
40828;DHT22;26549;50.918;5.338;2024-01-30T08:37:41;12.30;99.90
40828;DHT22;26549;50.918;5.338;2024-01-30T08:40:07;12.20;99.90
40828;DHT22;26549;50.918;5.338;2024-01-30T08:42:36;12.30;99.90
40828;DHT22;26549;50.918;5.338;2024-01-30T08:45:02;12.30;99.90
40828;DHT22;26549;50.918;5.338;2024-01-30T08:47:30;12.20;99.90
40828;DHT22;26549;50.918;5.338;2024-01-30T08:49:56;12.30;99.90
40828;DHT22;26549;50.918;5.338;2024-01-30T08:52:22;12.20;99.90
40828;DHT22;26549;50.918;5.338;2024-01-30T08:54:50;12.30;99.90
40828;DHT22;26549;50.918;5.338;2024-01-30T08:57:15;12.30;99.90
40828;DHT22;26549;50.918;5.338;2024-01-30T08:59:41;12.40;99.90
40828;DHT22;26549;50.918;5.338;2024-01-30T09:02:10;12.40;99.90
40828;DHT22;26549;50.918;5.338;2024-01-30T09:04:37;12.40;99.90
40828;DHT22;26549;50.918;5.338;2024-01-30T09:07:03;12.50;99.90
40828;DHT22;26549;50.918;5.338;2024-01-30T09:09:31;12.50;99.90
40828;DHT22;26549;50.918;5.338;2024-01-30T09:11:57;12.60;99.90
40828;DHT22;26549;50.918;5.338;2024-01-30T09:14:27;12.50;99.90
40828;DHT22;26549;50.918;5.338;2024-01-30T09:16:54;12.50;99.90
40828;DHT22;26549;50.918;5.338;2024-01-30T09:19:20;12.50;99.90
40828;DHT22;26549;50.918;5.338;2024-01-30T09:21:48;12.50;99.90
40828;DHT22;26549;50.918;5.338;2024-01-30T09:24:17;12.50;99.90
40828;DHT22;26549;50.918;5.338;2024-01-30T09:26:43;12.50;99.90
40828;DHT22;26549;50.918;5.338;2024-01-30T09:29:08;12.70;99.90
40828;DHT22;26549;50.918;5.338;2024-01-30T09:31:35;12.70;99.90
40828;DHT22;26549;50.918;5.338;2024-01-30T09:34:02;12.80;99.90
40828;DHT22;26549;50.918;5.338;2024-01-30T09:36:27;12.80;99.90
40828;DHT22;26549;50.918;5.338;2024-01-30T09:38:55;12.80;99.90
40828;DHT22;26549;50.918;5.338;2024-01-30T09:41:24;12.80;99.90
40828;DHT22;26549;50.918;5.338;2024-01-30T09:43:51;12.80;99.90
40828;DHT22;26549;50.918;5.338;2024-01-30T09:46:20;12.80;99.90
40828;DHT22;26549;50.918;5.338;2024-01-30T09:48:47;12.80;99.90
40828;DHT22;26549;50.918;5.338;2024-01-30T09:51:15;12.80;99.90
40828;DHT22;26549;50.918;5.338;2024-01-30T09:53:43;13.10;99.90
40828;DHT22;26549;50.918;5.338;2024-01-30T09:56:10;13.10;99.90
40828;DHT22;26549;50.918;5.338;2024-01-30T09:58:36;13.00;99.90
40828;DHT22;26549;50.918;5.338;2024-01-30T10:01:02;13.00;99.90
40828;DHT22;26549;50.918;5.338;2024-01-30T10:03:28;12.90;99.90
40828;DHT22;26549;50.918;5.338;2024-01-30T10:05:55;12.90;99.90
40828;DHT22;26549;50.918;5.338;2024-01-30T10:08:21;13.10;99.90
40828;DHT22;26549;50.918;5.338;2024-01-30T10:10:47;13.20;99.90
40828;DHT22;26549;50.918;5.338;2024-01-30T10:13:14;13.40;99.90
40828;DHT22;26549;50.918;5.338;2024-01-30T10:15:39;13.40;99.90
40828;DHT22;26549;50.918;5.338;2024-01-30T10:18:06;13.30;99.90
40828;DHT22;26549;50.918;5.338;2024-01-30T10:20:32;13.30;99.90
40828;DHT22;26549;50.918;5.338;2024-01-30T10:22:59;13.40;99.90
40828;DHT22;26549;50.918;5.338;2024-01-30T10:25:25;13.40;99.90
40828;DHT22;26549;50.918;5.338;2024-01-30T10:27:55;13.40;99.90
40828;DHT22;26549;50.918;5.338;2024-01-30T10:30:22;13.50;99.90
40828;DHT22;26549;50.918;5.338;2024-01-30T10:32:48;13.50;99.90
40828;DHT22;26549;50.918;5.338;2024-01-30T10:35:15;13.50;99.90
40828;DHT22;26549;50.918;5.338;2024-01-30T10:37:43;13.50;99.90
40828;DHT22;26549;50.918;5.338;2024-01-30T10:40:13;13.60;99.90
40828;DHT22;26549;50.918;5.338;2024-01-30T10:42:42;13.60;99.90
40828;DHT22;26549;50.918;5.338;2024-01-30T10:45:10;13.50;99.90
40828;DHT22;26549;50.918;5.338;2024-01-30T10:47:49;13.50;99.90
40828;DHT22;26549;50.918;5.338;2024-01-30T10:50:16;13.50;99.90
40828;DHT22;26549;50.918;5.338;2024-01-30T10:52:42;13.60;99.90
40828;DHT22;26549;50.918;5.338;2024-01-30T10:55:10;13.60;99.90
40828;DHT22;26549;50.918;5.338;2024-01-30T10:57:36;13.50;99.90
40828;DHT22;26549;50.918;5.338;2024-01-30T11:00:08;13.50;99.90
40828;DHT22;26549;50.918;5.338;2024-01-30T11:02:39;13.50;99.90
40828;DHT22;26549;50.918;5.338;2024-01-30T11:05:06;13.60;99.90
40828;DHT22;26549;50.918;5.338;2024-01-30T11:07:32;13.60;99.90
40828;DHT22;26549;50.918;5.338;2024-01-30T11:12:27;13.50;99.90
40828;DHT22;26549;50.918;5.338;2024-01-30T11:15:07;13.40;99.90
40828;DHT22;26549;50.918;5.338;2024-01-30T11:20:18;13.40;99.90
40828;DHT22;26549;50.918;5.338;2024-01-30T11:22:46;13.30;99.90
40828;DHT22;26549;50.918;5.338;2024-01-30T11:25:17;13.40;99.90
40828;DHT22;26549;50.918;5.338;2024-01-30T11:27:44;13.50;99.90
40828;DHT22;26549;50.918;5.338;2024-01-30T11:30:10;13.40;99.90
40828;DHT22;26549;50.918;5.338;2024-01-30T11:32:36;13.30;99.90
40828;DHT22;26549;50.918;5.338;2024-01-30T11:35:06;13.40;99.90
40828;DHT22;26549;50.918;5.338;2024-01-30T11:37:37;13.30;99.90
40828;DHT22;26549;50.918;5.338;2024-01-30T11:40:06;13.30;99.90
40828;DHT22;26549;50.918;5.338;2024-01-30T11:42:32;13.20;99.90
40828;DHT22;26549;50.918;5.338;2024-01-30T11:45:00;13.30;99.90
40828;DHT22;26549;50.918;5.338;2024-01-30T11:47:28;13.30;99.90
40828;DHT22;26549;50.918;5.338;2024-01-30T11:49:54;13.30;99.90
40828;DHT22;26549;50.918;5.338;2024-01-30T11:52:20;13.40;99.90
40828;DHT22;26549;50.918;5.338;2024-01-30T11:54:46;13.30;99.90
40828;DHT22;26549;50.918;5.338;2024-01-30T11:57:12;13.30;99.90
40828;DHT22;26549;50.918;5.338;2024-01-30T11:59:38;13.40;99.90
40828;DHT22;26549;50.918;5.338;2024-01-30T12:02:04;13.20;99.90
40828;DHT22;26549;50.918;5.338;2024-01-30T12:04:30;13.20;99.90
40828;DHT22;26549;50.918;5.338;2024-01-30T12:06:56;13.40;99.90
40828;DHT22;26549;50.918;5.338;2024-01-30T12:09:22;13.40;99.90
40828;DHT22;26549;50.918;5.338;2024-01-30T12:11:48;13.50;99.90
40828;DHT22;26549;50.918;5.338;2024-01-30T12:14:16;13.40;99.90
40828;DHT22;26549;50.918;5.338;2024-01-30T12:16:42;13.30;99.90
40828;DHT22;26549;50.918;5.338;2024-01-30T12:19:08;13.40;99.90
40828;DHT22;26549;50.918;5.338;2024-01-30T12:21:34;13.40;99.90
40828;DHT22;26549;50.918;5.338;2024-01-30T12:24:00;13.40;99.90
40828;DHT22;26549;50.918;5.338;2024-01-30T12:26:26;13.60;99.90
40828;DHT22;26549;50.918;5.338;2024-01-30T12:28:55;13.60;99.90
40828;DHT22;26549;50.918;5.338;2024-01-30T12:31:27;13.50;99.90
40828;DHT22;26549;50.918;5.338;2024-01-30T12:33:53;13.40;99.90
40828;DHT22;26549;50.918;5.338;2024-01-30T12:36:20;13.50;99.90
40828;DHT22;26549;50.918;5.338;2024-01-30T12:38:46;13.40;99.90
40828;DHT22;26549;50.918;5.338;2024-01-30T12:41:12;13.30;99.90
40828;DHT22;26549;50.918;5.338;2024-01-30T12:43:37;13.30;99.90
40828;DHT22;26549;50.918;5.338;2024-01-30T12:46:03;13.10;99.90
40828;DHT22;26549;50.918;5.338;2024-01-30T12:48:29;13.10;99.90
40828;DHT22;26549;50.918;5.338;2024-01-30T12:50:56;13.20;99.90
40828;DHT22;26549;50.918;5.338;2024-01-30T12:53:22;13.20;99.90
40828;DHT22;26549;50.918;5.338;2024-01-30T12:55:48;13.10;99.90
40828;DHT22;26549;50.918;5.338;2024-01-30T12:58:15;12.90;99.90
40828;DHT22;26549;50.918;5.338;2024-01-30T13:00:41;12.90;99.90
40828;DHT22;26549;50.918;5.338;2024-01-30T13:03:09;12.90;99.90
40828;DHT22;26549;50.918;5.338;2024-01-30T13:05:35;12.80;99.90
40828;DHT22;26549;50.918;5.338;2024-01-30T13:08:01;12.90;99.90
40828;DHT22;26549;50.918;5.338;2024-01-30T13:10:27;12.90;99.90
40828;DHT22;26549;50.918;5.338;2024-01-30T13:12:53;12.80;99.90
40828;DHT22;26549;50.918;5.338;2024-01-30T13:15:18;12.90;99.90
40828;DHT22;26549;50.918;5.338;2024-01-30T13:17:44;13.00;99.90
40828;DHT22;26549;50.918;5.338;2024-01-30T13:20:13;12.90;99.90
40828;DHT22;26549;50.918;5.338;2024-01-30T13:22:43;12.80;99.90
40828;DHT22;26549;50.918;5.338;2024-01-30T13:25:09;12.90;99.90
40828;DHT22;26549;50.918;5.338;2024-01-30T13:27:35;12.90;99.90
40828;DHT22;26549;50.918;5.338;2024-01-30T13:30:01;12.90;99.90
40828;DHT22;26549;50.918;5.338;2024-01-30T13:32:27;12.90;99.90
40828;DHT22;26549;50.918;5.338;2024-01-30T13:34:52;12.80;99.90
40828;DHT22;26549;50.918;5.338;2024-01-30T13:37:18;12.90;99.90
40828;DHT22;26549;50.918;5.338;2024-01-30T13:39:44;13.00;99.90
40828;DHT22;26549;50.918;5.338;2024-01-30T13:42:10;12.90;99.90
40828;DHT22;26549;50.918;5.338;2024-01-30T13:44:36;12.70;99.90
40828;DHT22;26549;50.918;5.338;2024-01-30T13:47:03;12.70;99.90
40828;DHT22;26549;50.918;5.338;2024-01-30T13:49:28;12.60;99.90
40828;DHT22;26549;50.918;5.338;2024-01-30T13:51:54;12.50;99.90
40828;DHT22;26549;50.918;5.338;2024-01-30T13:54:20;12.60;99.90
40828;DHT22;26549;50.918;5.338;2024-01-30T13:56:46;12.60;99.90
40828;DHT22;26549;50.918;5.338;2024-01-30T13:59:11;12.60;99.90
40828;DHT22;26549;50.918;5.338;2024-01-30T14:01:37;12.30;99.90
40828;DHT22;26549;50.918;5.338;2024-01-30T14:04:03;12.30;99.90
40828;DHT22;26549;50.918;5.338;2024-01-30T14:06:29;12.30;99.90
40828;DHT22;26549;50.918;5.338;2024-01-30T14:08:55;12.20;99.90
40828;DHT22;26549;50.918;5.338;2024-01-30T14:11:20;12.20;99.90
40828;DHT22;26549;50.918;5.338;2024-01-30T14:13:46;12.20;99.90
40828;DHT22;26549;50.918;5.338;2024-01-30T14:16:12;12.30;99.90
40828;DHT22;26549;50.918;5.338;2024-01-30T14:18:38;12.40;99.90
40828;DHT22;26549;50.918;5.338;2024-01-30T14:21:03;12.50;99.90
40828;DHT22;26549;50.918;5.338;2024-01-30T14:23:29;12.60;99.90
40828;DHT22;26549;50.918;5.338;2024-01-30T14:25:55;12.50;99.90
40828;DHT22;26549;50.918;5.338;2024-01-30T14:28:21;12.40;99.90
40828;DHT22;26549;50.918;5.338;2024-01-30T14:30:46;12.20;99.90
40828;DHT22;26549;50.918;5.338;2024-01-30T14:33:12;12.30;99.90
40828;DHT22;26549;50.918;5.338;2024-01-30T14:35:38;12.30;99.90
40828;DHT22;26549;50.918;5.338;2024-01-30T14:38:04;12.20;99.90
40828;DHT22;26549;50.918;5.338;2024-01-30T14:40:31;12.30;99.90
40828;DHT22;26549;50.918;5.338;2024-01-30T14:42:56;12.30;99.90
40828;DHT22;26549;50.918;5.338;2024-01-30T14:45:22;12.40;99.90
40828;DHT22;26549;50.918;5.338;2024-01-30T14:47:48;12.20;99.90
40828;DHT22;26549;50.918;5.338;2024-01-30T14:50:14;12.20;99.90
40828;DHT22;26549;50.918;5.338;2024-01-30T14:52:42;12.20;99.90
40828;DHT22;26549;50.918;5.338;2024-01-30T14:55:08;12.20;99.90
40828;DHT22;26549;50.918;5.338;2024-01-30T14:57:34;12.20;99.90
40828;DHT22;26549;50.918;5.338;2024-01-30T15:00:00;12.20;99.90
40828;DHT22;26549;50.918;5.338;2024-01-30T15:02:26;12.30;99.90
40828;DHT22;26549;50.918;5.338;2024-01-30T15:04:52;12.30;99.90
40828;DHT22;26549;50.918;5.338;2024-01-30T15:07:18;12.30;99.90
40828;DHT22;26549;50.918;5.338;2024-01-30T15:09:44;12.20;99.90
40828;DHT22;26549;50.918;5.338;2024-01-30T15:12:10;12.10;99.90
40828;DHT22;26549;50.918;5.338;2024-01-30T15:14:35;12.10;99.90
40828;DHT22;26549;50.918;5.338;2024-01-30T15:17:01;12.10;99.90
40828;DHT22;26549;50.918;5.338;2024-01-30T15:19:27;12.20;99.90
40828;DHT22;26549;50.918;5.338;2024-01-30T15:21:53;12.10;99.90
40828;DHT22;26549;50.918;5.338;2024-01-30T15:24:19;12.10;99.90
40828;DHT22;26549;50.918;5.338;2024-01-30T15:26:46;12.10;99.90
40828;DHT22;26549;50.918;5.338;2024-01-30T15:29:11;12.00;99.90
40828;DHT22;26549;50.918;5.338;2024-01-30T15:31:37;12.10;99.90